createdAt,value
2018-06-04T00:00:05.658Z,7.50
2018-06-04T00:02:34.282Z,9.30
2018-06-04T00:05:02.944Z,9.37
2018-06-04T00:07:31.601Z,7.87
2018-06-04T00:10:00.246Z,14.87
2018-06-04T00:12:28.869Z,11.33
2018-06-04T00:14:58.041Z,7.77
2018-06-04T00:17:26.744Z,8.10
2018-06-04T00:19:55.317Z,7.63
2018-06-04T00:22:23.914Z,8.73
2018-06-04T00:24:52.601Z,8.23
2018-06-04T00:27:21.320Z,8.90
2018-06-04T00:29:49.993Z,8.20
2018-06-04T00:32:18.767Z,8.90
2018-06-04T00:34:47.380Z,7.10
2018-06-04T00:37:15.975Z,7.70
2018-06-04T00:39:44.606Z,9.73
2018-06-04T00:42:13.214Z,12.90
2018-06-04T00:44:42.565Z,8.03
2018-06-04T00:47:11.216Z,8.00
2018-06-04T00:49:39.874Z,10.90
2018-06-04T00:52:08.541Z,7.40
2018-06-04T00:54:37.127Z,8.43
2018-06-04T00:57:05.791Z,8.37
2018-06-04T00:59:34.410Z,8.07
2018-06-04T01:02:02.985Z,7.83
2018-06-04T01:04:31.605Z,8.87
2018-06-04T01:07:00.165Z,9.23
2018-06-04T01:09:28.793Z,9.60
2018-06-04T01:11:57.484Z,9.10
2018-06-04T01:14:26.182Z,8.50
2018-06-04T01:16:54.796Z,9.00
2018-06-04T01:19:23.404Z,9.23
2018-06-04T01:21:51.989Z,8.80
2018-06-04T01:24:20.612Z,12.50
2018-06-04T01:26:49.212Z,9.20
2018-06-04T01:29:17.773Z,8.70
2018-06-04T01:31:46.380Z,8.50
2018-06-04T01:34:15.062Z,8.33
2018-06-04T01:36:43.732Z,10.40
2018-06-04T01:39:29.991Z,9.23
2018-06-04T01:41:58.652Z,8.70
2018-06-04T01:44:27.380Z,12.87
2018-06-04T01:46:56.031Z,9.50
2018-06-04T01:49:24.606Z,8.90
2018-06-04T01:51:53.273Z,8.73
2018-06-04T01:54:21.831Z,11.10
2018-06-04T01:56:50.414Z,8.87
2018-06-04T01:59:19.123Z,8.30
2018-06-04T02:01:47.746Z,11.20
2018-06-04T02:04:16.389Z,10.40
2018-06-04T02:06:45.042Z,11.40
2018-06-04T02:09:13.712Z,13.10
2018-06-04T02:11:42.306Z,9.73
2018-06-04T02:14:10.917Z,11.97
2018-06-04T02:16:39.493Z,10.30
2018-06-04T02:19:08.141Z,10.27
2018-06-04T02:21:40.588Z,9.40
2018-06-04T02:24:10.201Z,9.70
2018-06-04T02:26:38.889Z,10.03
2018-06-04T02:29:07.504Z,9.50
2018-06-04T02:31:36.122Z,10.07
2018-06-04T02:34:04.827Z,9.43
2018-06-04T02:36:33.565Z,10.07
2018-06-04T02:39:02.212Z,9.90
2018-06-04T02:41:30.863Z,9.20
2018-06-04T02:43:59.509Z,10.40
2018-06-04T02:46:28.100Z,11.00
2018-06-04T02:48:56.693Z,11.87
2018-06-04T02:51:25.277Z,11.70
2018-06-04T02:53:53.977Z,10.43
2018-06-04T02:56:22.632Z,11.03
2018-06-04T02:58:51.277Z,12.47
2018-06-04T03:01:19.941Z,11.47
2018-06-04T03:03:48.195Z,11.67
2018-06-04T03:09:16.733Z,12.73
2018-06-04T03:11:45.442Z,13.30
2018-06-04T03:14:14.087Z,12.70
2018-06-04T03:16:42.913Z,10.10
2018-06-04T03:19:11.553Z,10.80
2018-06-04T03:21:40.126Z,13.50
2018-06-04T03:24:08.780Z,11.50
2018-06-04T03:26:37.415Z,10.87
2018-06-04T03:29:06.054Z,12.60
2018-06-04T03:31:34.687Z,14.90
2018-06-04T03:34:03.390Z,11.33
2018-06-04T03:36:32.065Z,11.83
2018-06-04T03:39:00.700Z,12.97
2018-06-04T03:41:29.374Z,12.33
2018-06-04T03:43:58.041Z,11.60
2018-06-04T03:46:26.718Z,12.90
2018-06-04T03:48:55.413Z,14.83
2018-06-04T03:51:24.064Z,11.17
2018-06-04T03:53:52.669Z,12.13
2018-06-04T03:56:21.317Z,10.87
2018-06-04T03:58:49.923Z,10.70
2018-06-04T04:01:18.688Z,11.50
2018-06-04T04:03:47.309Z,9.60
2018-06-04T04:06:15.953Z,11.67
2018-06-04T04:08:44.628Z,8.73
2018-06-04T04:11:13.283Z,9.77
2018-06-04T04:13:41.989Z,11.80
2018-06-04T04:16:11.591Z,8.57
2018-06-04T04:18:40.332Z,8.80
2018-06-04T04:21:08.943Z,9.20
2018-06-04T04:23:37.598Z,8.60
2018-06-04T04:26:06.245Z,8.77
2018-06-04T04:28:34.861Z,8.80
2018-06-04T04:31:03.539Z,8.43
2018-06-04T04:33:32.133Z,8.23
2018-06-04T04:36:00.735Z,11.27
2018-06-04T04:38:33.866Z,10.47
2018-06-04T04:41:02.513Z,8.20
2018-06-04T04:43:31.129Z,7.97
2018-06-04T04:45:59.901Z,9.33
2018-06-04T04:48:28.650Z,8.60
2018-06-04T04:50:57.326Z,14.60
2018-06-04T04:53:26.010Z,9.10
2018-06-04T04:55:54.750Z,11.03
2018-06-04T04:58:23.428Z,8.23
2018-06-04T05:00:52.061Z,10.57
2018-06-04T05:03:20.733Z,8.83
2018-06-04T05:05:49.418Z,9.40
2018-06-04T05:08:18.054Z,11.03
2018-06-04T05:10:46.725Z,8.30
2018-06-04T05:13:15.389Z,9.60
2018-06-04T05:15:44.138Z,11.70
2018-06-04T05:18:12.797Z,12.53
2018-06-04T05:20:41.090Z,8.17
2018-06-04T05:23:09.733Z,8.97
2018-06-04T05:25:38.410Z,8.00
2018-06-04T05:28:06.992Z,8.83
2018-06-04T05:30:35.681Z,12.37
2018-06-04T05:33:04.258Z,9.27
2018-06-04T05:35:33.003Z,11.97
2018-06-04T05:38:01.674Z,10.50
2018-06-04T05:40:30.301Z,10.20
2018-06-04T05:42:58.966Z,9.50
2018-06-04T05:45:27.642Z,10.77
2018-06-04T05:47:56.248Z,9.80
2018-06-04T05:50:24.847Z,10.47
2018-06-04T05:52:53.491Z,9.70
2018-06-04T05:55:22.157Z,10.03
2018-06-04T05:57:50.762Z,12.73
2018-06-04T06:00:19.451Z,10.60
2018-06-04T06:02:48.171Z,12.40
2018-06-04T06:05:16.873Z,12.80
2018-06-04T06:07:45.450Z,11.63
2018-06-04T06:10:14.096Z,10.50
2018-06-04T06:12:42.871Z,11.33
2018-06-04T06:15:11.557Z,12.53
2018-06-04T06:17:40.303Z,11.10
2018-06-04T06:20:08.972Z,12.67
2018-06-04T06:22:37.586Z,10.90
2018-06-04T06:25:06.300Z,11.23
2018-06-04T06:27:34.954Z,13.00
2018-06-04T06:30:03.698Z,10.63
2018-06-04T06:32:32.369Z,11.87
2018-06-04T06:35:01.057Z,10.33
2018-06-04T06:37:29.717Z,12.10
2018-06-04T06:39:58.370Z,10.20
2018-06-04T06:42:27.009Z,8.43
2018-06-04T06:44:55.685Z,9.23
2018-06-04T06:47:24.355Z,13.13
2018-06-04T06:49:53.026Z,10.17
2018-06-04T06:52:21.639Z,10.50
2018-06-04T06:54:50.298Z,12.57
2018-06-04T06:57:18.861Z,10.93
2018-06-04T06:59:47.439Z,12.67
2018-06-04T07:02:16.019Z,10.93
2018-06-04T07:04:44.672Z,10.10
2018-06-04T07:07:13.303Z,10.03
2018-06-04T07:09:41.871Z,10.20
2018-06-04T07:12:10.547Z,14.70
2018-06-04T07:14:39.118Z,9.60
2018-06-04T07:17:07.819Z,9.90
2018-06-04T07:19:36.416Z,9.83
2018-06-04T07:22:05.058Z,12.97
2018-06-04T07:24:33.638Z,9.50
2018-06-04T07:27:02.291Z,9.83
2018-06-04T07:29:31.016Z,10.63
2018-06-04T07:31:59.741Z,11.00
2018-06-04T07:34:28.393Z,11.87
2018-06-04T07:36:56.960Z,8.73
2018-06-04T07:39:25.651Z,7.93
2018-06-04T07:41:54.406Z,9.90
2018-06-04T07:44:23.080Z,7.20
2018-06-04T07:46:51.656Z,6.80
2018-06-04T07:49:20.268Z,6.37
2018-06-04T07:51:48.920Z,5.83
2018-06-04T07:54:17.562Z,6.23
2018-06-04T07:56:46.258Z,6.00
2018-06-04T07:59:14.925Z,6.37
2018-06-04T08:01:43.605Z,9.07
2018-06-04T08:04:12.270Z,7.23
2018-06-04T08:06:40.900Z,8.93
2018-06-04T08:09:09.892Z,5.97
2018-06-04T08:11:38.529Z,6.83
2018-06-04T08:14:07.186Z,11.03
2018-06-04T08:16:35.784Z,10.77
2018-06-04T08:19:04.360Z,6.40
2018-06-04T08:21:33.094Z,15.60
2018-06-04T08:24:01.769Z,6.10
2018-06-04T08:26:30.364Z,5.60
2018-06-04T08:28:59.040Z,4.67
2018-06-04T08:31:27.729Z,6.30
2018-06-04T08:33:56.442Z,7.00
2018-06-04T08:36:25.103Z,4.93
2018-06-04T08:38:53.789Z,6.40
2018-06-04T08:41:22.462Z,6.23
2018-06-04T08:43:51.042Z,4.53
2018-06-04T08:46:19.609Z,4.80
2018-06-04T08:48:48.250Z,5.23
2018-06-04T08:51:16.861Z,5.60
2018-06-04T08:53:45.554Z,4.13
2018-06-04T08:56:14.172Z,4.63
2018-06-04T08:58:42.864Z,4.87
2018-06-04T09:01:11.454Z,3.80
2018-06-04T09:03:40.109Z,3.60
2018-06-04T09:06:08.672Z,5.20
2018-06-04T09:08:37.269Z,4.03
2018-06-04T09:11:05.843Z,4.20
2018-06-04T09:13:34.527Z,3.90
2018-06-04T09:16:03.128Z,3.87
2018-06-04T09:18:31.899Z,3.80
2018-06-04T09:21:00.495Z,4.43
2018-06-04T09:23:29.110Z,3.97
2018-06-04T09:25:57.765Z,5.30
2018-06-04T09:28:25.961Z,3.30
2018-06-04T09:30:54.569Z,4.33
2018-06-04T09:33:23.227Z,3.90
2018-06-04T09:35:51.905Z,3.40
2018-06-04T09:38:24.013Z,3.53
2018-06-04T09:40:52.609Z,3.57
2018-06-04T09:43:21.241Z,3.60
2018-06-04T09:45:50.095Z,2.97
2018-06-04T09:48:18.732Z,5.13
2018-06-04T09:50:47.345Z,2.93
2018-06-04T09:53:15.971Z,4.90
2018-06-04T09:55:44.549Z,4.03
2018-06-04T09:58:13.219Z,3.80
2018-06-04T10:00:41.863Z,4.13
2018-06-04T10:03:10.403Z,4.50
2018-06-04T10:05:39.048Z,4.00
2018-06-04T10:08:07.786Z,3.97
2018-06-04T10:10:36.533Z,3.30
2018-06-04T10:13:05.125Z,3.60
2018-06-04T10:15:33.821Z,3.77
2018-06-04T10:18:02.527Z,5.70
2018-06-04T10:20:31.202Z,4.10
2018-06-04T10:22:59.887Z,4.30
2018-06-04T10:25:28.555Z,4.50
2018-06-04T10:27:57.445Z,3.63
2018-06-04T10:30:26.116Z,4.80
2018-06-04T10:32:54.857Z,5.37
2018-06-04T10:35:23.554Z,4.87
2018-06-04T10:37:52.274Z,3.23
2018-06-04T10:40:20.925Z,3.67
2018-06-04T10:42:49.515Z,4.17
2018-06-04T10:45:18.191Z,2.63
2018-06-04T10:47:46.839Z,9.10
2018-06-04T10:50:15.409Z,2.00
2018-06-04T10:52:43.965Z,3.57
2018-06-04T10:55:12.605Z,2.30
2018-06-04T10:57:41.347Z,2.50
2018-06-04T11:00:10.041Z,2.00
2018-06-04T11:02:38.679Z,2.10
2018-06-04T11:05:07.353Z,4.60
2018-06-04T11:07:35.962Z,4.40
2018-06-04T11:10:04.862Z,1.67
2018-06-04T11:12:33.460Z,2.77
2018-06-04T11:15:02.056Z,4.97
2018-06-04T11:17:30.646Z,2.50
2018-06-04T11:19:59.331Z,2.23
2018-06-04T11:22:27.906Z,2.83
2018-06-04T11:24:56.544Z,2.47
2018-06-04T11:27:25.138Z,3.17
2018-06-04T11:29:53.762Z,2.00
2018-06-04T11:32:22.343Z,2.30
2018-06-04T11:34:51.008Z,3.07
2018-06-04T11:37:19.556Z,3.00
2018-06-04T11:39:48.212Z,2.47
2018-06-04T11:42:16.758Z,3.17
2018-06-04T11:44:45.321Z,2.33
2018-06-04T11:47:13.950Z,2.37
2018-06-04T11:49:42.542Z,2.40
2018-06-04T11:52:11.228Z,6.10
2018-06-04T11:54:39.914Z,2.67
2018-06-04T11:57:08.506Z,2.60
2018-06-04T11:59:37.099Z,5.60
2018-06-04T12:02:05.789Z,4.37
2018-06-04T12:04:34.425Z,2.80
2018-06-04T12:07:03.059Z,2.80
2018-06-04T12:09:31.324Z,4.13
2018-06-04T12:11:59.628Z,3.60
2018-06-04T12:14:28.193Z,3.10
2018-06-04T12:16:56.786Z,2.80
2018-06-04T12:19:25.449Z,3.77
2018-06-04T12:21:53.747Z,2.80
2018-06-04T12:24:22.359Z,4.03
2018-06-04T12:26:50.930Z,6.10
2018-06-04T12:29:19.726Z,2.90
2018-06-04T12:31:48.364Z,3.07
2018-06-04T12:34:16.992Z,2.80
2018-06-04T12:36:45.512Z,2.80
2018-06-04T12:39:14.172Z,4.47
2018-06-04T12:41:42.825Z,2.87
2018-06-04T12:44:11.440Z,4.43
2018-06-04T12:46:40.040Z,2.80
2018-06-04T12:49:08.702Z,4.90
2018-06-04T12:51:37.256Z,2.80
2018-06-04T12:54:05.885Z,2.70
2018-06-04T12:56:34.487Z,4.80
2018-06-04T12:59:03.081Z,2.70
2018-06-04T13:01:31.683Z,2.87
2018-06-04T13:04:00.373Z,2.70
2018-06-04T13:06:28.957Z,3.10
2018-06-04T13:08:57.452Z,3.37
2018-06-04T13:11:27.237Z,4.50
2018-06-04T13:13:55.913Z,2.83
2018-06-04T13:16:24.446Z,2.93
2018-06-04T13:18:53.120Z,3.40
2018-06-04T13:21:21.784Z,3.33
2018-06-04T13:23:50.440Z,3.80
2018-06-04T13:26:19.036Z,3.40
2018-06-04T13:28:47.575Z,2.70
2018-06-04T13:31:16.155Z,2.90
2018-06-04T13:33:44.768Z,2.83
2018-06-04T13:36:13.345Z,2.60
2018-06-04T13:38:41.983Z,2.73
2018-06-04T13:41:10.621Z,3.63
2018-06-04T13:43:39.246Z,2.77
2018-06-04T13:46:07.814Z,2.77
2018-06-04T13:48:36.382Z,2.83
2018-06-04T13:51:04.997Z,3.40
2018-06-04T13:53:33.584Z,2.90
2018-06-04T13:56:02.265Z,2.93
2018-06-04T13:58:30.840Z,2.80
2018-06-04T14:00:59.412Z,3.57
2018-06-04T14:03:28.060Z,2.40
2018-06-04T14:05:56.668Z,3.20
2018-06-04T14:08:25.223Z,5.27
2018-06-04T14:10:53.864Z,2.63
2018-06-04T14:13:22.476Z,2.73
2018-06-04T14:15:51.253Z,6.40
2018-06-04T14:18:19.886Z,4.10
2018-06-04T14:20:48.565Z,3.20
2018-06-04T14:23:17.201Z,3.50
2018-06-04T14:25:45.788Z,5.07
2018-06-04T14:28:14.437Z,7.90
2018-06-04T14:30:43.037Z,3.80
2018-06-04T14:33:11.608Z,3.47
2018-06-04T14:35:39.821Z,3.40
2018-06-04T14:38:11.661Z,3.60
2018-06-04T14:40:40.240Z,3.13
2018-06-04T14:43:08.895Z,5.53
2018-06-04T14:45:37.564Z,4.97
2018-06-04T14:48:06.155Z,4.17
2018-06-04T14:50:34.783Z,3.20
2018-06-04T14:53:03.462Z,6.20
2018-06-04T14:55:32.140Z,4.37
2018-06-04T14:58:00.813Z,3.53
2018-06-04T15:00:29.401Z,3.67
2018-06-04T15:03:07.649Z,3.63
2018-06-04T15:05:36.324Z,4.60
2018-06-04T15:08:05.013Z,4.20
2018-06-04T15:10:33.655Z,3.60
2018-06-04T15:13:02.260Z,3.43
2018-06-04T15:15:30.868Z,5.03
2018-06-04T15:17:59.423Z,3.67
2018-06-04T15:20:28.030Z,4.37
2018-06-04T15:22:56.674Z,3.83
2018-06-04T15:25:25.276Z,3.47
2018-06-04T15:27:53.888Z,3.37
2018-06-04T15:30:22.525Z,3.60
2018-06-04T15:35:49.488Z,3.80
2018-06-04T15:38:18.080Z,5.03
2018-06-04T15:40:46.674Z,3.50
2018-06-04T15:43:15.331Z,4.27
2018-06-04T15:45:43.959Z,3.60
2018-06-04T15:48:12.638Z,3.70
2018-06-04T15:50:41.356Z,3.43
2018-06-04T15:53:09.998Z,3.83
2018-06-04T15:55:38.558Z,3.07
2018-06-04T15:58:07.197Z,3.10
2018-06-04T16:00:36.713Z,3.10
2018-06-04T16:03:05.310Z,3.57
2018-06-04T16:05:33.902Z,3.40
2018-06-04T16:08:02.592Z,4.27
2018-06-04T16:10:31.198Z,3.53
2018-06-04T16:12:59.754Z,3.00
2018-06-04T16:15:28.362Z,3.33
2018-06-04T16:17:57.787Z,4.47
2018-06-04T16:20:26.497Z,3.00
2018-06-04T16:22:55.141Z,3.60
2018-06-04T16:25:23.741Z,3.70
2018-06-04T16:27:52.351Z,3.80
2018-06-04T16:30:21.043Z,5.63
2018-06-04T16:32:49.627Z,4.07
2018-06-04T16:35:18.294Z,3.67
2018-06-04T16:37:46.924Z,3.77
2018-06-04T16:40:15.489Z,3.93
2018-06-04T16:42:44.025Z,4.13
2018-06-04T16:45:12.611Z,6.10
2018-06-04T16:47:41.343Z,5.10
2018-06-04T16:50:10.050Z,4.20
2018-06-04T16:52:38.658Z,4.20
2018-06-04T16:55:07.256Z,3.97
2018-06-04T16:57:35.954Z,7.20
2018-06-04T17:00:04.864Z,3.90
2018-06-04T17:02:33.516Z,5.00
2018-06-04T17:05:02.209Z,4.43
2018-06-04T17:07:30.884Z,4.90
2018-06-04T17:09:59.589Z,4.60
2018-06-04T17:12:28.291Z,4.23
2018-06-04T17:14:56.919Z,6.10
2018-06-04T17:17:25.566Z,4.70
2018-06-04T17:19:54.138Z,7.20
2018-06-04T17:22:23.796Z,5.40
2018-06-04T17:24:52.423Z,5.53
2018-06-04T17:27:21.752Z,5.10
2018-06-04T17:29:50.369Z,5.63
2018-06-04T17:32:19.150Z,5.90
2018-06-04T17:34:47.758Z,5.90
2018-06-04T17:37:19.945Z,5.00
2018-06-04T17:39:59.085Z,5.80
2018-06-04T17:42:29.876Z,6.70
2018-06-04T17:44:58.735Z,5.03
2018-06-04T17:47:29.486Z,6.73
2018-06-04T17:50:05.266Z,7.67
2018-06-04T17:52:33.961Z,9.27
2018-06-04T17:58:10.194Z,5.00
2018-06-04T18:00:38.837Z,5.60
2018-06-04T18:03:07.523Z,6.97
2018-06-04T18:05:37.210Z,6.90
2018-06-04T18:08:05.883Z,5.40
2018-06-04T18:10:52.600Z,5.20
2018-06-04T18:13:27.569Z,6.00
2018-06-04T18:15:56.232Z,5.10
2018-06-04T18:18:24.938Z,5.27
2018-06-04T18:20:53.631Z,5.90
2018-06-04T18:23:29.617Z,6.20
2018-06-04T18:25:58.261Z,8.37
2018-06-04T18:28:37.361Z,5.27
2018-06-04T18:31:06.403Z,5.90
2018-06-04T18:33:35.124Z,7.77
2018-06-04T18:36:03.828Z,6.10
2018-06-04T18:38:32.118Z,6.40
2018-06-04T18:41:04.530Z,6.03
2018-06-04T18:43:33.144Z,6.10
2018-06-04T18:46:01.840Z,5.57
2018-06-04T18:48:30.450Z,6.00
2018-06-04T18:50:59.202Z,6.73
2018-06-04T18:53:27.856Z,5.80
2018-06-04T18:55:56.510Z,6.40
2018-06-04T18:58:25.204Z,5.53
2018-06-04T19:00:53.876Z,5.50
2018-06-04T19:03:22.562Z,5.73
2018-06-04T19:05:51.180Z,6.83
2018-06-04T19:08:19.856Z,6.80
2018-06-04T19:10:48.580Z,8.10
2018-06-04T19:13:17.267Z,7.33
2018-06-04T19:15:45.856Z,8.10
2018-06-04T19:18:14.565Z,6.13
2018-06-04T19:20:42.914Z,5.47
2018-06-04T19:23:11.580Z,5.33
2018-06-04T19:25:40.247Z,6.33
2018-06-04T19:28:08.882Z,6.17
2018-06-04T19:30:37.517Z,6.53
2018-06-04T19:33:06.306Z,6.00
2018-06-04T19:35:34.933Z,7.47
2018-06-04T19:38:03.625Z,8.83
2018-06-04T19:40:32.265Z,6.70
2018-06-04T19:43:00.922Z,6.87
2018-06-04T19:45:29.669Z,6.77
2018-06-04T19:47:58.336Z,7.60
2018-06-04T19:50:27.077Z,9.93
2018-06-04T19:52:55.852Z,7.00
2018-06-04T19:55:24.600Z,6.20
2018-06-04T19:57:53.344Z,7.57
2018-06-04T20:00:22.001Z,6.40
2018-06-04T20:02:50.282Z,6.47
2018-06-04T20:08:24.400Z,10.27
2018-06-04T20:10:53.125Z,7.30
2018-06-04T20:13:21.686Z,8.73
2018-06-04T20:15:50.438Z,6.80
2018-06-04T20:18:19.182Z,8.37
2018-06-04T20:20:47.865Z,6.50
2018-06-04T20:23:16.491Z,6.70
2018-06-04T20:25:45.246Z,6.83
2018-06-04T20:28:13.895Z,8.57
2018-06-04T20:30:42.610Z,9.00
2018-06-04T20:33:11.278Z,8.90
2018-06-04T20:35:39.928Z,6.60
2018-06-04T20:38:08.612Z,7.80
2018-06-04T20:40:37.329Z,7.73
2018-06-04T20:43:06.049Z,7.83
2018-06-04T20:45:34.737Z,6.97
2018-06-04T20:48:03.493Z,9.53
2018-06-04T20:50:32.156Z,8.40
2018-06-04T20:53:00.786Z,8.47
2018-06-04T20:55:29.508Z,8.97
2018-06-04T20:57:58.183Z,7.17
2018-06-04T21:00:26.916Z,8.60
2018-06-04T21:02:55.648Z,8.10
2018-06-04T21:05:24.301Z,7.20
2018-06-04T21:07:53.018Z,7.10
2018-06-04T21:10:21.783Z,7.00
2018-06-04T21:12:50.436Z,13.97
2018-06-04T21:15:19.022Z,9.10
2018-06-04T21:17:47.645Z,7.37
2018-06-04T21:20:16.337Z,8.83
2018-06-04T21:22:44.981Z,10.17
2018-06-04T21:25:13.602Z,13.73
2018-06-04T21:27:42.293Z,7.77
2018-06-04T21:30:10.982Z,7.17
2018-06-04T21:32:39.628Z,8.70
2018-06-04T21:35:08.278Z,7.73
2018-06-04T21:37:36.857Z,7.50
2018-06-04T21:40:05.581Z,7.10
2018-06-04T21:42:34.249Z,8.30
2018-06-04T21:45:07.386Z,7.60
2018-06-04T21:47:36.096Z,9.93
2018-06-04T21:50:04.806Z,10.03
2018-06-04T21:52:33.478Z,7.40
2018-06-04T21:55:02.124Z,7.50
2018-06-04T21:57:30.788Z,9.90
2018-06-04T21:59:59.376Z,11.43
2018-06-04T22:02:28.019Z,7.90
2018-06-04T22:04:56.578Z,9.00
2018-06-04T22:07:25.146Z,9.97
2018-06-04T22:09:53.728Z,8.07
2018-06-04T22:12:22.345Z,8.90
2018-06-04T22:14:50.913Z,7.50
2018-06-04T22:17:19.510Z,8.70
2018-06-04T22:19:48.281Z,7.57
2018-06-04T22:22:16.918Z,8.03
2018-06-04T22:24:45.573Z,8.73
2018-06-04T22:27:14.324Z,7.80
2018-06-04T22:29:42.858Z,7.37
2018-06-04T22:32:11.464Z,8.40
2018-06-04T22:34:39.985Z,9.20
2018-06-04T22:37:08.608Z,7.53
2018-06-04T22:39:37.220Z,10.20
2018-06-04T22:42:05.469Z,10.80
2018-06-04T22:44:34.094Z,9.33
2018-06-04T22:47:02.733Z,10.70
2018-06-04T22:49:31.527Z,9.30
2018-06-04T22:52:00.119Z,8.33
2018-06-04T22:54:28.737Z,9.80
2018-06-04T22:56:57.376Z,9.10
2018-06-04T22:59:25.985Z,10.23
2018-06-04T23:01:54.664Z,8.03
2018-06-04T23:04:23.266Z,8.50
2018-06-04T23:06:51.936Z,8.70
2018-06-04T23:09:20.614Z,10.20
2018-06-04T23:11:49.225Z,10.40
2018-06-04T23:14:17.909Z,8.20
2018-06-04T23:16:46.564Z,9.00
2018-06-04T23:19:15.141Z,10.00
2018-06-04T23:21:43.729Z,11.73
2018-06-04T23:24:12.380Z,14.80
2018-06-04T23:26:40.905Z,9.20
2018-06-04T23:29:09.595Z,11.67
2018-06-04T23:31:38.227Z,9.23
2018-06-04T23:34:06.947Z,9.30
2018-06-04T23:36:35.571Z,9.00
2018-06-04T23:39:06.109Z,9.30
2018-06-04T23:41:34.768Z,13.97
2018-06-04T23:44:03.477Z,9.77
2018-06-04T23:46:32.103Z,12.17
2018-06-04T23:49:00.721Z,10.50
2018-06-04T23:51:29.349Z,9.67
2018-06-04T23:53:57.992Z,11.40
2018-06-04T23:56:26.244Z,12.80
2018-06-04T23:58:54.837Z,11.73
